sensor_id;sensor_type;location;lat;lon;timestamp;pressure;altitude;pressure_sealevel;temperature;humidity
56912;BME280;42800;53.928;27.662;2023-03-01T00:02:09;99939.34;;;1.89;100.00
56912;BME280;42800;53.928;27.662;2023-03-01T00:04:35;99934.53;;;1.62;100.00
56912;BME280;42800;53.928;27.662;2023-03-01T00:07:02;99934.25;;;1.87;100.00
56912;BME280;42800;53.928;27.662;2023-03-01T00:09:28;99928.66;;;1.79;100.00
56912;BME280;42800;53.928;27.662;2023-03-01T00:11:55;99924.13;;;1.74;100.00
56912;BME280;42800;53.928;27.662;2023-03-01T00:14:21;99930.50;;;1.83;100.00
56912;BME280;42800;53.928;27.662;2023-03-01T00:16:47;99935.44;;;2.00;100.00
56912;BME280;42800;53.928;27.662;2023-03-01T00:19:16;99930.31;;;1.99;100.00
56912;BME280;42800;53.928;27.662;2023-03-01T00:21:42;99938.78;;;1.68;100.00
56912;BME280;42800;53.928;27.662;2023-03-01T00:24:09;99945.22;;;1.96;100.00
56912;BME280;42800;53.928;27.662;2023-03-01T00:26:36;99946.09;;;1.92;100.00
56912;BME280;42800;53.928;27.662;2023-03-01T00:29:03;99938.63;;;1.83;100.00
56912;BME280;42800;53.928;27.662;2023-03-01T00:31:32;99928.84;;;1.87;100.00
56912;BME280;42800;53.928;27.662;2023-03-01T00:33:59;99926.75;;;2.03;100.00
56912;BME280;42800;53.928;27.662;2023-03-01T00:36:28;99921.88;;;1.81;100.00
56912;BME280;42800;53.928;27.662;2023-03-01T00:38:55;99922.22;;;1.99;100.00
56912;BME280;42800;53.928;27.662;2023-03-01T00:41:21;99916.03;;;1.93;100.00
56912;BME280;42800;53.928;27.662;2023-03-01T00:43:49;99910.59;;;1.98;100.00
56912;BME280;42800;53.928;27.662;2023-03-01T00:46:18;99910.81;;;2.02;100.00
56912;BME280;42800;53.928;27.662;2023-03-01T00:48:44;99907.09;;;1.98;100.00
56912;BME280;42800;53.928;27.662;2023-03-01T00:51:13;99909.56;;;2.13;100.00
56912;BME280;42800;53.928;27.662;2023-03-01T00:53:40;99905.56;;;1.86;100.00
56912;BME280;42800;53.928;27.662;2023-03-01T00:56:08;99903.34;;;1.94;100.00
56912;BME280;42800;53.928;27.662;2023-03-01T00:58:34;99893.91;;;1.91;100.00
56912;BME280;42800;53.928;27.662;2023-03-01T01:01:07;99891.88;;;2.02;100.00
56912;BME280;42800;53.928;27.662;2023-03-01T01:03:43;99869.00;;;2.13;100.00
56912;BME280;42800;53.928;27.662;2023-03-01T01:06:14;99871.13;;;2.16;100.00
56912;BME280;42800;53.928;27.662;2023-03-01T01:08:40;99880.78;;;2.03;100.00
56912;BME280;42800;53.928;27.662;2023-03-01T01:11:08;99871.69;;;1.94;100.00
56912;BME280;42800;53.928;27.662;2023-03-01T01:13:35;99881.44;;;2.14;100.00
56912;BME280;42800;53.928;27.662;2023-03-01T01:16:02;99884.88;;;2.20;100.00
56912;BME280;42800;53.928;27.662;2023-03-01T01:18:28;99873.03;;;2.16;100.00
56912;BME280;42800;53.928;27.662;2023-03-01T01:20:55;99871.22;;;2.11;100.00
56912;BME280;42800;53.928;27.662;2023-03-01T01:23:21;99880.06;;;2.35;100.00
56912;BME280;42800;53.928;27.662;2023-03-01T01:25:48;99869.22;;;2.35;100.00
56912;BME280;42800;53.928;27.662;2023-03-01T01:28:14;99880.72;;;2.46;100.00
56912;BME280;42800;53.928;27.662;2023-03-01T01:30:40;99859.59;;;2.48;100.00
56912;BME280;42800;53.928;27.662;2023-03-01T01:33:08;99863.75;;;2.41;100.00
56912;BME280;42800;53.928;27.662;2023-03-01T01:35:34;99860.53;;;2.57;100.00
56912;BME280;42800;53.928;27.662;2023-03-01T01:38:01;99851.41;;;2.34;100.00
56912;BME280;42800;53.928;27.662;2023-03-01T01:40:27;99851.63;;;2.38;100.00
56912;BME280;42800;53.928;27.662;2023-03-01T01:42:53;99844.28;;;2.57;100.00
56912;BME280;42800;53.928;27.662;2023-03-01T01:45:29;99810.28;;;2.51;100.00
56912;BME280;42800;53.928;27.662;2023-03-01T01:48:00;99804.34;;;2.49;100.00
56912;BME280;42800;53.928;27.662;2023-03-01T01:50:30;99796.81;;;2.46;100.00
56912;BME280;42800;53.928;27.662;2023-03-01T01:53:09;99795.63;;;2.52;100.00
56912;BME280;42800;53.928;27.662;2023-03-01T01:55:41;99781.16;;;2.43;100.00
56912;BME280;42800;53.928;27.662;2023-03-01T01:58:10;99780.25;;;2.15;100.00
56912;BME280;42800;53.928;27.662;2023-03-01T02:00:39;99798.59;;;2.37;100.00
56912;BME280;42800;53.928;27.662;2023-03-01T02:03:09;99793.41;;;2.41;100.00
56912;BME280;42800;53.928;27.662;2023-03-01T02:05:40;99783.72;;;2.53;100.00
56912;BME280;42800;53.928;27.662;2023-03-01T02:08:10;99766.13;;;2.37;100.00
56912;BME280;42800;53.928;27.662;2023-03-01T02:10:37;99787.41;;;2.44;100.00
56912;BME280;42800;53.928;27.662;2023-03-01T02:13:04;99747.44;;;2.22;100.00
56912;BME280;42800;53.928;27.662;2023-03-01T02:15:32;99753.47;;;2.32;100.00
56912;BME280;42800;53.928;27.662;2023-03-01T02:17:59;99746.16;;;2.33;100.00
56912;BME280;42800;53.928;27.662;2023-03-01T02:20:33;99759.63;;;2.38;100.00
56912;BME280;42800;53.928;27.662;2023-03-01T02:23:00;99735.91;;;2.30;100.00
56912;BME280;42800;53.928;27.662;2023-03-01T02:25:32;99731.03;;;2.32;100.00
56912;BME280;42800;53.928;27.662;2023-03-01T02:28:06;99721.53;;;2.34;100.00
56912;BME280;42800;53.928;27.662;2023-03-01T02:30:34;99720.31;;;2.27;100.00
56912;BME280;42800;53.928;27.662;2023-03-01T02:33:03;99715.56;;;2.19;100.00
56912;BME280;42800;53.928;27.662;2023-03-01T02:35:31;99712.22;;;2.41;100.00
56912;BME280;42800;53.928;27.662;2023-03-01T02:37:58;99698.59;;;2.46;100.00
56912;BME280;42800;53.928;27.662;2023-03-01T02:40:27;99684.56;;;2.44;100.00
56912;BME280;42800;53.928;27.662;2023-03-01T02:42:56;99674.22;;;2.46;100.00
56912;BME280;42800;53.928;27.662;2023-03-01T02:45:22;99673.69;;;2.30;100.00
56912;BME280;42800;53.928;27.662;2023-03-01T02:47:50;99661.00;;;2.44;100.00
56912;BME280;42800;53.928;27.662;2023-03-01T02:50:25;99627.69;;;2.16;100.00
56912;BME280;42800;53.928;27.662;2023-03-01T02:53:02;99629.69;;;2.10;100.00
56912;BME280;42800;53.928;27.662;2023-03-01T02:55:30;99642.94;;;2.26;100.00
56912;BME280;42800;53.928;27.662;2023-03-01T02:57:57;99617.00;;;2.39;100.00
56912;BME280;42800;53.928;27.662;2023-03-01T03:00:26;99594.13;;;2.17;100.00
56912;BME280;42800;53.928;27.662;2023-03-01T03:02:55;99606.47;;;2.23;100.00
56912;BME280;42800;53.928;27.662;2023-03-01T03:05:24;99589.13;;;2.24;100.00
56912;BME280;42800;53.928;27.662;2023-03-01T03:07:51;99595.66;;;2.23;100.00
56912;BME280;42800;53.928;27.662;2023-03-01T03:10:19;99578.00;;;1.79;100.00
56912;BME280;42800;53.928;27.662;2023-03-01T03:12:49;99597.50;;;1.95;100.00
56912;BME280;42800;53.928;27.662;2023-03-01T03:15:16;99598.47;;;1.85;100.00
56912;BME280;42800;53.928;27.662;2023-03-01T03:17:43;99604.88;;;1.89;100.00
56912;BME280;42800;53.928;27.662;2023-03-01T03:20:12;99594.19;;;1.98;100.00
56912;BME280;42800;53.928;27.662;2023-03-01T03:22:40;99563.41;;;1.80;100.00
56912;BME280;42800;53.928;27.662;2023-03-01T03:25:07;99557.31;;;1.56;100.00
56912;BME280;42800;53.928;27.662;2023-03-01T03:27:36;99617.56;;;1.75;100.00
56912;BME280;42800;53.928;27.662;2023-03-01T03:30:04;99620.28;;;1.56;100.00
56912;BME280;42800;53.928;27.662;2023-03-01T03:32:34;99657.72;;;1.82;100.00
56912;BME280;42800;53.928;27.662;2023-03-01T03:35:01;99619.31;;;1.99;100.00
56912;BME280;42800;53.928;27.662;2023-03-01T03:37:28;99596.72;;;1.76;100.00
56912;BME280;42800;53.928;27.662;2023-03-01T03:40:12;99575.63;;;1.78;100.00
56912;BME280;42800;53.928;27.662;2023-03-01T03:42:40;99557.38;;;1.70;100.00
56912;BME280;42800;53.928;27.662;2023-03-01T03:45:07;99555.56;;;1.65;100.00
56912;BME280;42800;53.928;27.662;2023-03-01T03:47:34;99562.88;;;1.64;100.00
56912;BME280;42800;53.928;27.662;2023-03-01T03:50:00;99548.41;;;1.55;100.00
56912;BME280;42800;53.928;27.662;2023-03-01T03:52:27;99574.50;;;1.46;100.00
56912;BME280;42800;53.928;27.662;2023-03-01T03:54:53;99600.22;;;1.76;100.00
56912;BME280;42800;53.928;27.662;2023-03-01T03:57:19;99556.84;;;2.00;100.00
56912;BME280;42800;53.928;27.662;2023-03-01T03:59:46;99524.34;;;1.86;100.00
56912;BME280;42800;53.928;27.662;2023-03-01T04:02:12;99509.22;;;1.72;100.00
56912;BME280;42800;53.928;27.662;2023-03-01T04:04:47;99526.34;;;1.67;100.00
56912;BME280;42800;53.928;27.662;2023-03-01T04:07:15;99544.53;;;1.61;100.00
56912;BME280;42800;53.928;27.662;2023-03-01T04:09:42;99557.63;;;1.54;100.00
56912;BME280;42800;53.928;27.662;2023-03-01T04:12:08;99611.03;;;1.76;100.00
56912;BME280;42800;53.928;27.662;2023-03-01T04:14:34;99597.53;;;1.76;100.00
56912;BME280;42800;53.928;27.662;2023-03-01T04:17:01;99595.16;;;1.56;100.00
56912;BME280;42800;53.928;27.662;2023-03-01T04:19:30;99614.06;;;1.56;100.00
56912;BME280;42800;53.928;27.662;2023-03-01T04:22:01;99649.19;;;1.56;100.00
56912;BME280;42800;53.928;27.662;2023-03-01T04:24:32;99656.94;;;1.81;100.00
56912;BME280;42800;53.928;27.662;2023-03-01T04:26:59;99641.88;;;1.75;100.00
56912;BME280;42800;53.928;27.662;2023-03-01T04:29:26;99625.50;;;1.85;100.00
56912;BME280;42800;53.928;27.662;2023-03-01T04:31:52;99611.97;;;1.85;100.00
56912;BME280;42800;53.928;27.662;2023-03-01T04:34:18;99610.88;;;1.86;100.00
56912;BME280;42800;53.928;27.662;2023-03-01T04:36:45;99592.59;;;1.64;100.00
56912;BME280;42800;53.928;27.662;2023-03-01T04:39:11;99597.31;;;1.73;100.00
56912;BME280;42800;53.928;27.662;2023-03-01T04:41:38;99583.25;;;1.89;100.00
56912;BME280;42800;53.928;27.662;2023-03-01T04:44:05;99567.78;;;1.76;100.00
56912;BME280;42800;53.928;27.662;2023-03-01T04:46:32;99607.63;;;1.71;100.00
56912;BME280;42800;53.928;27.662;2023-03-01T04:48:58;99613.00;;;1.57;100.00
56912;BME280;42800;53.928;27.662;2023-03-01T04:51:24;99650.47;;;1.45;100.00
56912;BME280;42800;53.928;27.662;2023-03-01T04:53:50;99718.25;;;1.67;100.00
56912;BME280;42800;53.928;27.662;2023-03-01T04:56:17;99730.78;;;1.39;100.00
56912;BME280;42800;53.928;27.662;2023-03-01T04:58:43;99755.66;;;1.36;100.00
56912;BME280;42800;53.928;27.662;2023-03-01T05:01:13;99802.97;;;1.57;100.00
56912;BME280;42800;53.928;27.662;2023-03-01T05:03:41;99803.06;;;1.71;100.00
56912;BME280;42800;53.928;27.662;2023-03-01T05:06:09;99782.09;;;1.82;100.00
56912;BME280;42800;53.928;27.662;2023-03-01T05:08:36;99750.28;;;1.93;100.00
56912;BME280;42800;53.928;27.662;2023-03-01T05:11:02;99711.72;;;1.87;100.00
56912;BME280;42800;53.928;27.662;2023-03-01T05:13:29;99689.63;;;1.99;100.00
56912;BME280;42800;53.928;27.662;2023-03-01T05:15:57;99660.06;;;1.88;100.00
56912;BME280;42800;53.928;27.662;2023-03-01T05:18:25;99599.94;;;1.78;100.00
56912;BME280;42800;53.928;27.662;2023-03-01T05:20:52;99610.88;;;1.86;100.00
56912;BME280;42800;53.928;27.662;2023-03-01T05:23:18;99593.41;;;1.65;100.00
56912;BME280;42800;53.928;27.662;2023-03-01T05:25:44;99568.88;;;1.61;100.00
56912;BME280;42800;53.928;27.662;2023-03-01T05:28:11;99558.63;;;1.58;100.00
56912;BME280;42800;53.928;27.662;2023-03-01T05:30:37;99528.72;;;1.55;100.00
56912;BME280;42800;53.928;27.662;2023-03-01T05:33:06;99517.09;;;1.54;100.00
56912;BME280;42800;53.928;27.662;2023-03-01T05:35:39;99520.75;;;1.77;100.00
56912;BME280;42800;53.928;27.662;2023-03-01T05:38:06;99504.13;;;1.70;100.00
56912;BME280;42800;53.928;27.662;2023-03-01T05:40:33;99540.56;;;1.86;100.00
56912;BME280;42800;53.928;27.662;2023-03-01T05:43:00;99517.16;;;1.96;100.00
56912;BME280;42800;53.928;27.662;2023-03-01T05:45:27;99554.84;;;2.06;100.00
56912;BME280;42800;53.928;27.662;2023-03-01T05:47:54;99529.88;;;0.78;100.00
56912;BME280;42800;53.928;27.662;2023-03-01T05:50:22;99710.53;;;0.93;100.00
56912;BME280;42800;53.928;27.662;2023-03-01T05:52:51;99758.69;;;0.57;100.00
56912;BME280;42800;53.928;27.662;2023-03-01T05:55:19;99971.94;;;0.37;100.00
56912;BME280;42800;53.928;27.662;2023-03-01T05:57:47;99934.56;;;0.15;100.00
56912;BME280;42800;53.928;27.662;2023-03-01T06:02:40;99850.66;;;0.61;100.00
56912;BME280;42800;53.928;27.662;2023-03-01T06:05:09;99788.44;;;0.76;100.00
56912;BME280;42800;53.928;27.662;2023-03-01T06:07:35;99662.66;;;0.80;100.00
56912;BME280;42800;53.928;27.662;2023-03-01T06:10:03;99521.25;;;0.76;100.00
56912;BME280;42800;53.928;27.662;2023-03-01T06:12:30;99385.03;;;0.74;100.00
56912;BME280;42800;53.928;27.662;2023-03-01T06:14:57;99269.41;;;1.50;100.00
56912;BME280;42800;53.928;27.662;2023-03-01T06:17:23;99071.13;;;2.53;100.00
56912;BME280;42800;53.928;27.662;2023-03-01T06:19:49;98752.66;;;2.92;100.00
56912;BME280;42800;53.928;27.662;2023-03-01T06:22:16;98618.41;;;2.61;100.00
56912;BME280;42800;53.928;27.662;2023-03-01T06:24:42;98621.75;;;3.59;100.00
56912;BME280;42800;53.928;27.662;2023-03-01T06:27:09;98659.47;;;4.06;100.00
56912;BME280;42800;53.928;27.662;2023-03-01T06:29:35;98743.09;;;3.83;100.00
56912;BME280;42800;53.928;27.662;2023-03-01T06:32:02;98778.97;;;4.43;100.00
56912;BME280;42800;53.928;27.662;2023-03-01T06:34:28;98843.88;;;4.36;100.00
56912;BME280;42800;53.928;27.662;2023-03-01T06:36:54;98887.44;;;4.60;100.00
56912;BME280;42800;53.928;27.662;2023-03-01T06:39:21;98951.78;;;4.60;100.00
56912;BME280;42800;53.928;27.662;2023-03-01T06:41:47;98977.88;;;4.22;100.00
56912;BME280;42800;53.928;27.662;2023-03-01T06:44:14;98954.13;;;4.70;100.00
56912;BME280;42800;53.928;27.662;2023-03-01T06:46:40;98992.69;;;4.63;100.00
56912;BME280;42800;53.928;27.662;2023-03-01T06:49:06;98964.44;;;3.96;100.00
56912;BME280;42800;53.928;27.662;2023-03-01T06:51:35;98950.19;;;4.80;100.00
56912;BME280;42800;53.928;27.662;2023-03-01T06:54:02;98942.63;;;5.06;100.00
56912;BME280;42800;53.928;27.662;2023-03-01T06:56:29;98966.41;;;5.63;100.00
56912;BME280;42800;53.928;27.662;2023-03-01T06:58:55;98967.28;;;5.55;100.00
56912;BME280;42800;53.928;27.662;2023-03-01T07:01:22;98998.47;;;5.04;100.00
56912;BME280;42800;53.928;27.662;2023-03-01T07:03:48;98974.13;;;5.07;100.00
56912;BME280;42800;53.928;27.662;2023-03-01T07:06:14;98951.00;;;4.59;100.00
56912;BME280;42800;53.928;27.662;2023-03-01T07:08:40;98889.91;;;4.03;100.00
56912;BME280;42800;53.928;27.662;2023-03-01T07:11:07;98859.28;;;4.23;100.00
56912;BME280;42800;53.928;27.662;2023-03-01T07:13:33;98850.63;;;3.79;100.00
56912;BME280;42800;53.928;27.662;2023-03-01T07:16:00;98797.16;;;3.59;100.00
56912;BME280;42800;53.928;27.662;2023-03-01T07:18:27;98801.78;;;3.58;100.00
56912;BME280;42800;53.928;27.662;2023-03-01T07:20:53;98766.06;;;3.56;100.00
56912;BME280;42800;53.928;27.662;2023-03-01T07:23:19;98802.19;;;3.39;100.00
56912;BME280;42800;53.928;27.662;2023-03-01T07:25:51;98798.03;;;3.42;100.00
56912;BME280;42800;53.928;27.662;2023-03-01T07:28:17;98791.03;;;3.41;100.00
56912;BME280;42800;53.928;27.662;2023-03-01T07:30:44;98828.09;;;3.58;100.00
56912;BME280;42800;53.928;27.662;2023-03-01T07:33:10;98867.84;;;3.45;100.00
56912;BME280;42800;53.928;27.662;2023-03-01T07:35:37;98821.94;;;3.40;100.00
56912;BME280;42800;53.928;27.662;2023-03-01T07:38:03;98833.75;;;3.44;100.00
56912;BME280;42800;53.928;27.662;2023-03-01T07:40:29;98815.94;;;3.25;100.00
56912;BME280;42800;53.928;27.662;2023-03-01T07:42:56;98813.88;;;3.31;100.00
56912;BME280;42800;53.928;27.662;2023-03-01T07:45:23;98850.16;;;3.39;100.00
56912;BME280;42800;53.928;27.662;2023-03-01T07:47:50;98874.69;;;3.42;100.00
56912;BME280;42800;53.928;27.662;2023-03-01T07:50:17;98891.38;;;3.62;100.00
56912;BME280;42800;53.928;27.662;2023-03-01T07:52:45;98952.00;;;3.40;100.00
56912;BME280;42800;53.928;27.662;2023-03-01T07:55:12;98954.16;;;3.17;100.00
56912;BME280;42800;53.928;27.662;2023-03-01T07:57:38;98955.72;;;3.18;100.00
56912;BME280;42800;53.928;27.662;2023-03-01T08:00:07;98940.91;;;3.15;100.00
56912;BME280;42800;53.928;27.662;2023-03-01T08:02:35;98940.22;;;3.36;100.00
56912;BME280;42800;53.928;27.662;2023-03-01T08:05:01;98953.19;;;3.13;100.00
56912;BME280;42800;53.928;27.662;2023-03-01T08:07:27;98950.94;;;3.06;100.00
56912;BME280;42800;53.928;27.662;2023-03-01T08:09:54;98949.97;;;3.19;100.00
56912;BME280;42800;53.928;27.662;2023-03-01T08:12:20;98958.94;;;2.94;100.00
56912;BME280;42800;53.928;27.662;2023-03-01T08:14:46;98968.50;;;2.91;100.00
56912;BME280;42800;53.928;27.662;2023-03-01T08:17:13;98957.81;;;3.21;100.00
56912;BME280;42800;53.928;27.662;2023-03-01T08:19:40;98967.22;;;2.97;100.00
56912;BME280;42800;53.928;27.662;2023-03-01T08:22:06;98952.22;;;2.65;100.00
56912;BME280;42800;53.928;27.662;2023-03-01T08:24:32;98942.19;;;3.09;100.00
56912;BME280;42800;53.928;27.662;2023-03-01T08:26:59;98967.84;;;3.03;100.00
56912;BME280;42800;53.928;27.662;2023-03-01T08:29:26;98965.63;;;3.05;100.00
56912;BME280;42800;53.928;27.662;2023-03-01T08:31:52;98971.75;;;3.58;100.00
56912;BME280;42800;53.928;27.662;2023-03-01T08:34:19;99019.41;;;3.59;100.00
56912;BME280;42800;53.928;27.662;2023-03-01T08:36:46;99083.94;;;4.00;100.00
56912;BME280;42800;53.928;27.662;2023-03-01T08:39:14;99133.69;;;4.13;100.00
56912;BME280;42800;53.928;27.662;2023-03-01T08:41:41;99146.56;;;4.42;100.00
56912;BME280;42800;53.928;27.662;2023-03-01T08:44:10;99187.75;;;4.91;100.00
56912;BME280;42800;53.928;27.662;2023-03-01T08:46:39;99191.22;;;5.00;100.00
56912;BME280;42800;53.928;27.662;2023-03-01T08:49:06;99210.63;;;4.81;100.00
56912;BME280;42800;53.928;27.662;2023-03-01T08:51:33;99211.59;;;5.45;100.00
56912;BME280;42800;53.928;27.662;2023-03-01T08:54:02;99245.72;;;5.04;100.00
56912;BME280;42800;53.928;27.662;2023-03-01T08:56:28;99231.28;;;4.65;100.00
56912;BME280;42800;53.928;27.662;2023-03-01T08:58:55;99215.63;;;4.62;100.00
56912;BME280;42800;53.928;27.662;2023-03-01T09:01:22;99212.00;;;4.49;100.00
56912;BME280;42800;53.928;27.662;2023-03-01T09:03:48;99206.72;;;5.00;100.00
56912;BME280;42800;53.928;27.662;2023-03-01T09:06:14;99248.78;;;5.82;100.00
56912;BME280;42800;53.928;27.662;2023-03-01T09:08:43;99258.66;;;5.36;100.00
56912;BME280;42800;53.928;27.662;2023-03-01T09:11:11;99248.97;;;5.27;100.00
56912;BME280;42800;53.928;27.662;2023-03-01T09:13:38;99259.09;;;5.47;100.00
56912;BME280;42800;53.928;27.662;2023-03-01T09:16:06;99253.09;;;4.86;100.00
56912;BME280;42800;53.928;27.662;2023-03-01T09:18:34;99250.94;;;4.62;100.00
56912;BME280;42800;53.928;27.662;2023-03-01T09:21:01;99235.50;;;5.01;100.00
56912;BME280;42800;53.928;27.662;2023-03-01T09:23:28;99246.69;;;6.09;100.00
56912;BME280;42800;53.928;27.662;2023-03-01T09:25:54;99302.53;;;6.15;100.00
56912;BME280;42800;53.928;27.662;2023-03-01T09:28:20;99331.16;;;6.00;100.00
56912;BME280;42800;53.928;27.662;2023-03-01T09:30:48;99333.94;;;6.33;100.00
56912;BME280;42800;53.928;27.662;2023-03-01T09:33:14;99345.81;;;6.08;100.00
56912;BME280;42800;53.928;27.662;2023-03-01T09:35:42;99349.25;;;6.59;100.00
56912;BME280;42800;53.928;27.662;2023-03-01T09:38:12;99353.44;;;6.77;100.00
56912;BME280;42800;53.928;27.662;2023-03-01T09:40:42;99363.28;;;7.03;100.00
56912;BME280;42800;53.928;27.662;2023-03-01T09:43:15;99365.25;;;7.15;99.77
56912;BME280;42800;53.928;27.662;2023-03-01T09:45:45;99366.03;;;7.15;93.39
56912;BME280;42800;53.928;27.662;2023-03-01T09:48:16;99369.19;;;7.50;93.50
56912;BME280;42800;53.928;27.662;2023-03-01T09:50:45;99362.38;;;7.81;93.05
56912;BME280;42800;53.928;27.662;2023-03-01T09:53:14;99373.03;;;8.23;86.80
56912;BME280;42800;53.928;27.662;2023-03-01T09:55:43;99375.22;;;8.17;87.74
56912;BME280;42800;53.928;27.662;2023-03-01T09:58:29;99364.97;;;8.14;87.41
56912;BME280;42800;53.928;27.662;2023-03-01T10:00:59;99370.66;;;8.09;83.98
56912;BME280;42800;53.928;27.662;2023-03-01T10:03:34;99366.13;;;7.89;83.13
56912;BME280;42800;53.928;27.662;2023-03-01T10:06:10;99363.41;;;8.13;85.63
56912;BME280;42800;53.928;27.662;2023-03-01T10:08:48;99357.47;;;8.11;89.34
56912;BME280;42800;53.928;27.662;2023-03-01T10:11:20;99372.81;;;8.28;81.32
56912;BME280;42800;53.928;27.662;2023-03-01T10:13:53;99362.50;;;7.97;85.13
56912;BME280;42800;53.928;27.662;2023-03-01T10:16:24;99364.69;;;8.56;80.84
56912;BME280;42800;53.928;27.662;2023-03-01T10:18:53;99360.56;;;8.62;84.96
56912;BME280;42800;53.928;27.662;2023-03-01T10:21:22;99367.41;;;8.97;84.05
56912;BME280;42800;53.928;27.662;2023-03-01T10:23:50;99367.97;;;8.62;82.66
56912;BME280;42800;53.928;27.662;2023-03-01T10:26:25;99368.81;;;8.25;83.05
56912;BME280;42800;53.928;27.662;2023-03-01T10:29:01;99361.28;;;8.87;78.59
56912;BME280;42800;53.928;27.662;2023-03-01T10:31:39;99355.25;;;8.82;78.50
56912;BME280;42800;53.928;27.662;2023-03-01T10:34:11;99366.25;;;8.98;79.39
56912;BME280;42800;53.928;27.662;2023-03-01T10:36:39;99362.03;;;8.07;81.45
56912;BME280;42800;53.928;27.662;2023-03-01T10:39:12;99367.09;;;8.45;79.84
56912;BME280;42800;53.928;27.662;2023-03-01T10:41:53;99365.34;;;8.00;83.47
56912;BME280;42800;53.928;27.662;2023-03-01T10:44:36;99362.38;;;7.69;86.12
56912;BME280;42800;53.928;27.662;2023-03-01T10:47:03;99368.19;;;8.04;82.24
56912;BME280;42800;53.928;27.662;2023-03-01T10:49:30;99349.69;;;6.82;91.44
56912;BME280;42800;53.928;27.662;2023-03-01T10:52:11;99347.25;;;7.47;88.43
56912;BME280;42800;53.928;27.662;2023-03-01T10:54:51;99357.56;;;7.17;88.29
56912;BME280;42800;53.928;27.662;2023-03-01T10:57:29;99354.69;;;7.13;88.54
56912;BME280;42800;53.928;27.662;2023-03-01T11:00:23;99351.75;;;7.18;91.00
56912;BME280;42800;53.928;27.662;2023-03-01T11:03:02;99355.25;;;7.06;92.08
56912;BME280;42800;53.928;27.662;2023-03-01T11:05:29;99351.81;;;8.04;85.87
56912;BME280;42800;53.928;27.662;2023-03-01T11:07:57;99345.41;;;8.12;82.39
56912;BME280;42800;53.928;27.662;2023-03-01T11:10:25;99339.81;;;8.33;81.09
56912;BME280;42800;53.928;27.662;2023-03-01T11:12:53;99350.28;;;8.19;83.13
56912;BME280;42800;53.928;27.662;2023-03-01T11:15:23;99341.03;;;8.36;81.73
56912;BME280;42800;53.928;27.662;2023-03-01T11:17:50;99348.16;;;7.39;78.65
56912;BME280;42800;53.928;27.662;2023-03-01T11:20:27;99346.91;;;7.03;83.72
56912;BME280;42800;53.928;27.662;2023-03-01T11:22:57;99333.53;;;6.65;84.93
56912;BME280;42800;53.928;27.662;2023-03-01T11:25:26;99334.16;;;6.82;88.25
56912;BME280;42800;53.928;27.662;2023-03-01T11:27:55;99337.72;;;6.95;86.56
56912;BME280;42800;53.928;27.662;2023-03-01T11:30:25;99344.78;;;6.75;81.90
56912;BME280;42800;53.928;27.662;2023-03-01T11:33:03;99336.72;;;6.67;87.21
56912;BME280;42800;53.928;27.662;2023-03-01T11:35:31;99339.44;;;6.25;90.93
56912;BME280;42800;53.928;27.662;2023-03-01T11:38:07;99332.94;;;6.17;90.78
56912;BME280;42800;53.928;27.662;2023-03-01T11:40:41;99326.75;;;5.78;93.24
56912;BME280;42800;53.928;27.662;2023-03-01T11:43:16;99334.66;;;5.92;93.16
56912;BME280;42800;53.928;27.662;2023-03-01T11:45:54;99330.69;;;5.60;93.05
56912;BME280;42800;53.928;27.662;2023-03-01T11:48:37;99323.78;;;5.62;93.07
56912;BME280;42800;53.928;27.662;2023-03-01T11:51:11;99325.72;;;5.62;93.21
56912;BME280;42800;53.928;27.662;2023-03-01T11:53:57;99321.13;;;5.54;96.72
56912;BME280;42800;53.928;27.662;2023-03-01T11:56:32;99326.84;;;5.61;95.42
56912;BME280;42800;53.928;27.662;2023-03-01T11:59:19;99315.00;;;5.95;97.15
56912;BME280;42800;53.928;27.662;2023-03-01T12:02:12;99327.94;;;5.89;97.41
56912;BME280;42800;53.928;27.662;2023-03-01T12:05:19;99331.88;;;5.80;95.83
56912;BME280;42800;53.928;27.662;2023-03-01T12:07:53;99327.09;;;5.38;96.10
56912;BME280;42800;53.928;27.662;2023-03-01T12:10:26;99319.59;;;5.35;96.05
56912;BME280;42800;53.928;27.662;2023-03-01T12:16:07;99312.72;;;5.38;100.00
56912;BME280;42800;53.928;27.662;2023-03-01T12:21:46;99316.84;;;4.97;100.00
56912;BME280;42800;53.928;27.662;2023-03-01T12:24:32;99310.13;;;5.03;100.00
56912;BME280;42800;53.928;27.662;2023-03-01T12:27:20;99307.81;;;5.23;100.00
56912;BME280;42800;53.928;27.662;2023-03-01T12:29:56;99326.78;;;5.40;97.19
56912;BME280;42800;53.928;27.662;2023-03-01T12:32:38;99311.81;;;5.25;99.18
56912;BME280;42800;53.928;27.662;2023-03-01T12:35:16;99313.47;;;5.47;98.45
56912;BME280;42800;53.928;27.662;2023-03-01T12:37:56;99318.50;;;5.28;98.88
56912;BME280;42800;53.928;27.662;2023-03-01T12:40:36;99310.28;;;5.07;100.00
56912;BME280;42800;53.928;27.662;2023-03-01T12:43:22;99315.38;;;5.00;100.00
56912;BME280;42800;53.928;27.662;2023-03-01T12:46:04;99311.13;;;4.90;99.72
56912;BME280;42800;53.928;27.662;2023-03-01T12:48:43;99308.13;;;4.65;100.00
56912;BME280;42800;53.928;27.662;2023-03-01T12:51:16;99307.31;;;4.74;100.00
56912;BME280;42800;53.928;27.662;2023-03-01T12:53:47;99308.59;;;4.67;100.00
56912;BME280;42800;53.928;27.662;2023-03-01T12:56:16;99307.97;;;4.44;100.00
56912;BME280;42800;53.928;27.662;2023-03-01T12:58:51;99298.84;;;4.66;100.00
56912;BME280;42800;53.928;27.662;2023-03-01T13:01:26;99298.41;;;4.30;100.00
56912;BME280;42800;53.928;27.662;2023-03-01T13:06:54;99290.56;;;4.45;100.00
56912;BME280;42800;53.928;27.662;2023-03-01T13:09:27;99303.19;;;4.33;100.00
56912;BME280;42800;53.928;27.662;2023-03-01T13:11:56;99303.66;;;4.52;100.00
56912;BME280;42800;53.928;27.662;2023-03-01T13:14:45;99294.22;;;4.67;100.00
56912;BME280;42800;53.928;27.662;2023-03-01T13:17:40;99300.56;;;4.80;100.00